Time;durP1;ratioP1;P1;durP2;ratioP2;P2;SDS_P1;SDS_P2;PMS_P1;PMS_P2;Temp;Humidity;BMP_temperature;BMP_pressure;BME280_temperature;BME280_humidity;BME280_pressure;Samples;Min_cycle;Max_cycle;Signal;HPM_P1;HPM_P2
2021/05/12 00:00:56;;;;;;;48.40;32.40;;;12.40;99.90;;;;;;3573149;40;21049;-80
2021/05/12 00:03:22;;;;;;;39.33;32.40;;;12.30;99.90;;;;;;3565877;40;20462;-80
2021/05/12 00:05:47;;;;;;;48.20;34.37;;;12.30;99.90;;;;;;3566666;40;20527;-81
2021/05/12 00:08:13;;;;;;;45.77;35.40;;;12.30;99.90;;;;;;3555854;40;20442;-80
2021/05/12 00:10:40;;;;;;;44.73;35.23;;;12.30;99.90;;;;;;3583755;39;20982;-80
2021/05/12 00:13:06;;;;;;;51.53;35.30;;;12.30;99.90;;;;;;3591999;39;20271;-81
2021/05/12 00:15:32;;;;;;;45.47;35.00;;;12.40;99.90;;;;;;3599976;39;20430;-81
2021/05/12 00:17:57;;;;;;;49.10;37.60;;;12.40;99.90;;;;;;3602549;39;20304;-81
2021/05/12 00:20:28;;;;;;;43.67;34.30;;;12.40;99.90;;;;;;3591530;39;20395;-81
2021/05/12 00:23:00;;;;;;;48.53;36.17;;;12.40;99.90;;;;;;3608304;39;20364;-81
2021/05/12 00:25:26;;;;;;;45.03;35.43;;;12.40;99.90;;;;;;3598188;39;20451;-80
2021/05/12 00:27:52;;;;;;;43.73;35.20;;;12.40;99.90;;;;;;3607042;39;21052;-80
2021/05/12 00:30:21;;;;;;;46.27;35.30;;;12.50;99.90;;;;;;3608180;39;20385;-81
2021/05/12 00:32:49;;;;;;;46.60;35.10;;;12.50;99.90;;;;;;3614108;39;20402;-81
2021/05/12 00:35:15;;;;;;;49.83;37.47;;;12.40;99.90;;;;;;3616281;39;20376;-80
2021/05/12 00:37:41;;;;;;;44.80;35.40;;;12.50;99.90;;;;;;3608166;39;20469;-80
2021/05/12 00:40:11;;;;;;;44.63;35.90;;;12.40;99.90;;;;;;3599378;39;20412;-80
2021/05/12 00:42:39;;;;;;;48.63;37.80;;;12.40;99.90;;;;;;3600247;39;21125;-81
2021/05/12 00:45:10;;;;;;;45.83;37.77;;;12.30;99.90;;;;;;3608904;39;20417;-80
2021/05/12 00:47:38;;;;;;;46.63;37.43;;;12.30;99.90;;;;;;3609158;39;20417;-81
2021/05/12 00:50:06;;;;;;;46.80;35.53;;;12.30;99.90;;;;;;3608607;39;20377;-81
2021/05/12 00:52:34;;;;;;;45.23;33.77;;;12.30;99.90;;;;;;3598066;39;20437;-81
2021/05/12 00:55:03;;;;;;;47.70;35.83;;;12.30;99.90;;;;;;3609033;39;20413;-80
2021/05/12 00:57:29;;;;;;;45.40;36.60;;;12.30;99.90;;;;;;3608480;39;20409;-81
2021/05/12 00:59:56;;;;;;;47.13;37.10;;;12.30;99.90;;;;;;3600521;39;20404;-81
2021/05/12 01:02:23;;;;;;;41.90;34.03;;;12.20;99.90;;;;;;3599747;39;20508;-80
2021/05/12 01:04:49;;;;;;;47.13;34.50;;;12.20;99.90;;;;;;3598823;39;20373;-81
2021/05/12 01:07:38;;;;;;;45.23;34.80;;;12.10;99.90;;;;;;3607431;39;20425;-81
2021/05/12 01:10:07;;;;;;;39.27;33.90;;;12.10;99.90;;;;;;3578819;39;20503;-81
2021/05/12 01:12:32;;;;;;;44.23;35.07;;;12.00;99.90;;;;;;3571749;40;21000;-81
2021/05/12 01:14:58;;;;;;;44.70;34.40;;;12.00;99.90;;;;;;3579389;39;20408;-81
2021/05/12 01:17:24;;;;;;;44.80;35.67;;;12.00;99.90;;;;;;3579515;39;20562;-80
2021/05/12 01:19:50;;;;;;;49.33;36.83;;;11.90;99.90;;;;;;3574847;39;20242;-81
2021/05/12 01:22:17;;;;;;;45.67;36.83;;;11.90;99.90;;;;;;3570284;40;20733;-81
2021/05/12 01:25:13;;;;;;;44.63;35.50;;;11.90;99.90;;;;;;3571197;40;20420;-78
2021/05/12 01:27:40;;;;;;;50.27;35.37;;;11.90;99.90;;;;;;3542543;40;20510;-81
2021/05/12 01:30:07;;;;;;;45.30;35.17;;;11.90;99.90;;;;;;3549109;40;20431;-81
2021/05/12 01:32:36;;;;;;;44.80;37.13;;;12.00;99.90;;;;;;3549514;40;20402;-81
2021/05/12 01:35:09;;;;;;;52.37;39.97;;;12.00;99.90;;;;;;3548770;40;20402;-81
2021/05/12 01:37:35;;;;;;;57.03;39.00;;;11.90;99.90;;;;;;3557723;40;20869;-81
2021/05/12 01:40:07;;;;;;;46.23;37.33;;;11.90;99.90;;;;;;3549225;40;20427;-78
2021/05/12 01:42:33;;;;;;;47.07;35.37;;;11.80;99.90;;;;;;3542106;40;20413;-81
2021/05/12 01:45:05;;;;;;;47.67;39.97;;;11.70;99.90;;;;;;3541510;40;20485;-80
2021/05/12 01:47:31;;;;;;;51.80;40.53;;;11.80;99.90;;;;;;3547976;40;20606;-81
2021/05/12 01:50:15;;;;;;;58.80;42.90;;;11.90;99.90;;;;;;3547247;40;20458;-81
2021/05/12 01:52:45;;;;;;;52.83;38.40;;;11.80;99.90;;;;;;3550782;40;20304;-80
2021/05/12 01:55:13;;;;;;;51.87;41.40;;;11.90;99.90;;;;;;3559308;40;20369;-80
2021/05/12 01:57:44;;;;;;;54.97;40.40;;;11.90;99.90;;;;;;3559360;40;20373;-81
2021/05/12 02:00:24;;;;;;;50.67;39.90;;;11.70;99.90;;;;;;3560628;40;20423;-80
2021/05/12 02:02:51;;;;;;;55.30;39.40;;;11.70;99.90;;;;;;3559186;40;20405;-79
2021/05/12 02:05:17;;;;;;;57.50;42.07;;;11.60;99.90;;;;;;3590763;39;20371;-80
2021/05/12 02:07:44;;;;;;;56.10;40.50;;;11.60;99.90;;;;;;3595940;39;22857;-80
2021/05/12 02:10:11;;;;;;;57.57;39.93;;;11.40;99.90;;;;;;3595849;39;20401;-81
2021/05/12 02:12:37;;;;;;;53.40;40.40;;;11.30;99.90;;;;;;3593446;39;21054;-80
2021/05/12 02:15:04;;;;;;;48.40;37.47;;;11.30;99.90;;;;;;3598326;39;20393;-80
2021/05/12 02:17:30;;;;;;;53.00;40.30;;;11.30;99.90;;;;;;3615022;39;20259;-81
2021/05/12 02:19:56;;;;;;;60.33;41.27;;;11.30;99.90;;;;;;3606120;39;20796;-80
2021/05/12 02:22:22;;;;;;;55.87;40.20;;;11.30;99.90;;;;;;3592871;39;20390;-80
2021/05/12 02:24:48;;;;;;;55.70;39.67;;;11.20;99.90;;;;;;3593059;39;20471;-79
2021/05/12 02:27:15;;;;;;;58.10;41.50;;;11.00;99.90;;;;;;3590582;39;20219;-80
2021/05/12 02:29:41;;;;;;;56.73;41.30;;;11.00;99.90;;;;;;3598671;39;20507;-80
2021/05/12 02:32:07;;;;;;;53.30;39.20;;;11.00;99.90;;;;;;3609137;39;20411;-80
2021/05/12 02:34:33;;;;;;;60.13;41.83;;;10.90;99.90;;;;;;3608691;39;20975;-79
2021/05/12 02:37:00;;;;;;;51.43;41.40;;;11.00;99.90;;;;;;3595626;39;21606;-80
2021/05/12 02:39:28;;;;;;;54.97;42.37;;;11.00;99.90;;;;;;3598763;39;20501;-80
2021/05/12 02:41:54;;;;;;;53.07;39.20;;;10.90;99.90;;;;;;3607453;39;20372;-80
2021/05/12 02:44:20;;;;;;;59.80;43.07;;;10.70;99.90;;;;;;3609247;39;20410;-79
2021/05/12 02:47:10;;;;;;;53.93;39.00;;;10.80;99.90;;;;;;3601112;39;20417;-80
2021/05/12 02:49:37;;;;;;;66.20;41.70;;;10.60;99.90;;;;;;3593046;39;20667;-80
2021/05/12 02:52:03;;;;;;;57.33;39.87;;;10.40;99.90;;;;;;3583428;39;20422;-80
2021/05/12 02:54:30;;;;;;;49.33;38.13;;;10.50;99.90;;;;;;3598373;39;20411;-80
2021/05/12 02:56:57;;;;;;;56.77;42.60;;;10.40;99.90;;;;;;3596757;39;20516;-80
2021/05/12 02:59:23;;;;;;;49.30;37.43;;;10.50;99.90;;;;;;3587289;39;20404;-80
2021/05/12 03:01:49;;;;;;;53.73;38.00;;;10.30;99.90;;;;;;3577497;39;20390;-80
2021/05/12 03:04:15;;;;;;;58.20;39.67;;;10.20;99.90;;;;;;3586281;39;21341;-80
2021/05/12 03:06:41;;;;;;;57.07;39.17;;;10.00;99.90;;;;;;3587074;39;20399;-81
2021/05/12 03:09:30;;;;;;;55.33;39.43;;;10.00;99.90;;;;;;3577095;39;20237;-80
2021/05/12 03:11:56;;;;;;;49.37;36.67;;;9.90;99.90;;;;;;3544949;40;20424;-81
2021/05/12 03:14:22;;;;;;;53.17;40.57;;;9.80;99.90;;;;;;3536412;40;20402;-80
2021/05/12 03:16:48;;;;;;;50.70;39.57;;;9.70;99.90;;;;;;3545270;40;20330;-80
2021/05/12 03:19:41;;;;;;;52.53;37.97;;;9.50;99.90;;;;;;3547571;40;20231;-81
2021/05/12 03:22:08;;;;;;;63.57;41.17;;;9.60;99.90;;;;;;3524291;40;20399;-79
2021/05/12 03:24:34;;;;;;;67.57;46.27;;;9.60;99.90;;;;;;3517157;40;20381;-79
2021/05/12 03:27:01;;;;;;;59.97;41.37;;;9.70;99.90;;;;;;3519221;40;20492;-79
2021/05/12 03:29:28;;;;;;;55.73;41.10;;;9.60;99.90;;;;;;3518995;40;20371;-78
2021/05/12 03:31:54;;;;;;;59.53;40.60;;;9.60;99.90;;;;;;3535134;40;20380;-79
2021/05/12 03:34:20;;;;;;;52.67;37.30;;;9.70;99.90;;;;;;3534198;40;20433;-79
2021/05/12 03:36:46;;;;;;;53.53;38.17;;;9.50;99.90;;;;;;3533782;40;20248;-79
2021/05/12 03:39:13;;;;;;;58.90;38.67;;;9.30;99.90;;;;;;3535038;40;20399;-78
2021/05/12 03:41:41;;;;;;;57.97;39.67;;;9.30;99.90;;;;;;3535694;40;20459;-79
2021/05/12 03:44:07;;;;;;;55.00;36.87;;;9.30;99.90;;;;;;3517033;40;20537;-79
2021/05/12 03:46:33;;;;;;;60.13;39.70;;;9.20;99.90;;;;;;3533513;40;20419;-80
2021/05/12 03:49:00;;;;;;;48.50;37.77;;;9.30;99.90;;;;;;3541776;40;20430;-78
2021/05/12 03:51:27;;;;;;;55.40;37.50;;;9.30;99.90;;;;;;3556303;40;20231;-78
2021/05/12 03:53:57;;;;;;;58.60;37.20;;;9.20;99.90;;;;;;3563916;40;20511;-78
2021/05/12 03:56:49;;;;;;;47.60;36.57;;;9.00;99.90;;;;;;3554229;40;20433;-79
2021/05/12 03:59:41;;;;;;;62.37;39.73;;;9.10;99.90;;;;;;3559791;40;20458;-78
2021/05/12 04:02:09;;;;;;;64.40;38.00;;;9.20;99.90;;;;;;3536864;40;20417;-78
2021/05/12 04:04:35;;;;;;;51.40;35.57;;;9.20;99.90;;;;;;3527775;40;20421;-80
2021/05/12 04:07:00;;;;;;;53.30;39.60;;;9.20;99.90;;;;;;3520572;40;20407;-78
2021/05/12 04:09:54;;;;;;;54.40;38.67;;;9.10;99.90;;;;;;3529228;40;20228;-79
2021/05/12 04:12:20;;;;;;;50.97;36.07;;;9.20;99.90;;;;;;3498085;41;20239;-78
2021/05/12 04:14:46;;;;;;;59.07;37.67;;;9.10;99.90;;;;;;3491671;40;20679;-79
2021/05/12 04:17:12;;;;;;;51.10;36.57;;;9.10;99.90;;;;;;3498332;41;20888;-79
2021/05/12 04:19:38;;;;;;;50.73;35.77;;;9.10;99.90;;;;;;3499039;40;20242;-79
2021/05/12 04:22:05;;;;;;;47.63;33.87;;;9.10;99.90;;;;;;3490226;40;20254;-79
2021/05/12 04:24:32;;;;;;;56.53;38.57;;;9.20;99.90;;;;;;3499069;41;20402;-79
2021/05/12 04:27:00;;;;;;;57.97;35.80;;;9.20;99.90;;;;;;3499168;41;20539;-78
2021/05/12 04:29:26;;;;;;;59.47;38.57;;;9.20;99.90;;;;;;3498530;41;20614;-79
2021/05/12 04:32:21;;;;;;;50.33;35.67;;;9.20;99.90;;;;;;3507699;41;20440;-79
2021/05/12 04:34:48;;;;;;;51.10;35.43;;;9.20;99.90;;;;;;3470743;41;20400;-78
2021/05/12 04:37:14;;;;;;;48.27;35.07;;;9.20;99.90;;;;;;3470269;41;20402;-78
2021/05/12 04:39:40;;;;;;;46.53;34.67;;;9.20;99.90;;;;;;3526745;40;22018;-78
2021/05/12 04:42:06;;;;;;;54.37;34.00;;;9.30;99.90;;;;;;3510750;40;20236;-78
2021/05/12 04:44:32;;;;;;;47.47;33.27;;;9.30;99.90;;;;;;3527454;40;20424;-78
2021/05/12 04:46:58;;;;;;;51.50;35.00;;;9.40;99.90;;;;;;3526734;40;20414;-79
2021/05/12 04:49:24;;;;;;;43.47;33.90;;;9.50;99.90;;;;;;3538977;40;20240;-78
2021/05/12 04:51:50;;;;;;;50.13;32.87;;;9.60;99.90;;;;;;3545707;40;20401;-78
2021/05/12 04:54:18;;;;;;;47.67;36.30;;;9.70;99.90;;;;;;3548782;40;20447;-79
2021/05/12 04:56:44;;;;;;;57.67;34.97;;;9.80;99.90;;;;;;3543371;40;20408;-79
2021/05/12 04:59:12;;;;;;;54.07;36.90;;;9.80;99.90;;;;;;3539491;40;20459;-79
2021/05/12 05:02:03;;;;;;;46.67;35.00;;;9.90;99.90;;;;;;3554721;40;20867;-79
2021/05/12 05:04:28;;;;;;;51.73;34.50;;;10.10;99.90;;;;;;3538225;40;20422;-79
2021/05/12 05:06:54;;;;;;;50.17;36.57;;;10.30;99.90;;;;;;3545354;40;20869;-79
2021/05/12 05:09:33;;;;;;;45.50;33.97;;;10.50;99.90;;;;;;3547559;40;20252;-79
2021/05/12 05:11:58;;;;;;;53.53;34.73;;;10.60;99.90;;;;;;3572142;39;20234;-79
2021/05/12 05:14:24;;;;;;;44.47;32.50;;;11.20;99.90;;;;;;3567740;40;20399;-80
2021/05/12 05:16:50;;;;;;;41.67;28.90;;;11.50;99.90;;;;;;3557576;40;20316;-79
2021/05/12 05:19:16;;;;;;;42.17;31.97;;;11.20;99.90;;;;;;3552441;40;20384;-80
2021/05/12 05:21:42;;;;;;;41.23;30.87;;;11.10;99.90;;;;;;3548904;40;20240;-79
2021/05/12 05:24:11;;;;;;;42.40;30.70;;;11.10;99.90;;;;;;3549662;40;20313;-79
2021/05/12 05:26:37;;;;;;;41.27;29.93;;;11.10;99.90;;;;;;3565184;40;20234;-78
2021/05/12 05:29:28;;;;;;;46.93;28.67;;;11.20;99.90;;;;;;3559146;40;20448;-79
2021/05/12 05:31:54;;;;;;;49.50;30.70;;;11.40;99.90;;;;;;3545236;40;20850;-79
2021/05/12 05:34:20;;;;;;;39.00;29.10;;;12.10;99.90;;;;;;3536384;40;20442;-79
2021/05/12 05:36:46;;;;;;;38.07;28.60;;;12.40;99.90;;;;;;3543800;40;20534;-79
2021/05/12 05:39:12;;;;;;;36.87;28.03;;;12.40;99.90;;;;;;3545055;40;20454;-79
2021/05/12 05:42:07;;;;;;;35.53;27.40;;;12.30;99.90;;;;;;3546627;40;20240;-80
2021/05/12 05:44:35;;;;;;;34.03;26.00;;;11.90;99.90;;;;;;3538797;40;20228;-79
2021/05/12 05:47:02;;;;;;;35.00;25.10;;;11.70;99.90;;;;;;3531901;40;20400;-79
2021/05/12 05:49:28;;;;;;;33.60;25.40;;;11.60;99.90;;;;;;3534176;40;20438;-80
2021/05/12 05:51:54;;;;;;;36.30;24.63;;;11.60;99.90;;;;;;3520699;40;20405;-80
2021/05/12 05:54:21;;;;;;;38.27;25.97;;;11.60;99.90;;;;;;3541300;40;20408;-80
2021/05/12 05:56:53;;;;;;;30.30;25.17;;;11.70;99.90;;;;;;3528925;40;21231;-80
2021/05/12 05:59:19;;;;;;;31.10;24.00;;;11.80;99.90;;;;;;3529482;40;20977;-79
2021/05/12 06:01:47;;;;;;;33.80;25.63;;;11.90;99.90;;;;;;3527969;40;20441;-79
2021/05/12 06:04:17;;;;;;;34.43;25.30;;;12.20;99.90;;;;;;3521898;40;20425;-79
2021/05/12 06:06:42;;;;;;;30.63;23.83;;;12.20;99.90;;;;;;3540157;40;20426;-78
2021/05/12 06:09:09;;;;;;;28.73;22.50;;;12.40;99.90;;;;;;3550492;40;20413;-80
2021/05/12 06:11:36;;;;;;;28.73;21.90;;;12.70;99.90;;;;;;3552751;40;20465;-79
2021/05/12 06:14:02;;;;;;;31.60;20.20;;;13.20;99.90;;;;;;3559571;40;20392;-78
2021/05/12 06:16:32;;;;;;;22.13;18.03;;;15.00;99.90;;;;;;3531543;40;20457;-79
2021/05/12 06:18:57;;;;;;;23.30;16.67;;;16.00;99.90;;;;;;3583226;40;20441;-79
2021/05/12 06:21:25;;;;;;;24.23;15.43;;;16.00;99.90;;;;;;3589016;39;20403;-79
2021/05/12 06:24:16;;;;;;;21.57;14.63;;;15.20;99.90;;;;;;3610172;39;20223;-79
2021/05/12 06:26:47;;;;;;;18.53;15.17;;;14.50;99.90;;;;;;3577835;40;20482;-79
2021/05/12 06:29:12;;;;;;;21.83;17.07;;;14.40;99.90;;;;;;3569955;40;20414;-78
2021/05/12 06:31:38;;;;;;;27.63;16.00;;;14.10;99.90;;;;;;3574251;40;20408;-79
2021/05/12 06:34:33;;;;;;;27.80;17.07;;;14.40;99.90;;;;;;3561631;40;20219;-78
2021/05/12 06:36:59;;;;;;;26.93;18.17;;;15.50;99.90;;;;;;3556272;40;20243;-79
2021/05/12 06:39:52;;;;;;;20.70;14.73;;;14.40;99.90;;;;;;3551220;40;20438;-78
2021/05/12 06:42:18;;;;;;;20.00;14.87;;;14.20;99.90;;;;;;3514973;40;20401;-78
2021/05/12 06:44:45;;;;;;;25.83;14.60;;;14.30;99.90;;;;;;3537748;40;20498;-79
2021/05/12 06:47:13;;;;;;;22.63;15.63;;;15.00;99.90;;;;;;3533588;40;20407;-79
2021/05/12 06:49:40;;;;;;;19.67;12.93;;;15.30;99.90;;;;;;3530014;40;21151;-79
2021/05/12 06:52:06;;;;;;;16.80;13.07;;;15.10;99.90;;;;;;3534830;40;20410;-79
2021/05/12 06:54:34;;;;;;;14.97;12.00;;;15.90;99.90;;;;;;3521341;40;20417;-79
2021/05/12 06:56:59;;;;;;;15.87;12.30;;;14.90;99.90;;;;;;3522380;40;20429;-79
2021/05/12 06:59:25;;;;;;;17.50;13.27;;;14.90;99.90;;;;;;3516297;40;20441;-80
2021/05/12 07:01:53;;;;;;;17.50;12.53;;;15.10;99.90;;;;;;3530127;40;20292;-79
2021/05/12 07:04:19;;;;;;;18.90;13.70;;;15.70;99.90;;;;;;3536659;40;20419;-79
2021/05/12 07:07:11;;;;;;;17.83;12.67;;;16.00;99.90;;;;;;3549533;40;20390;-79
2021/05/12 07:09:37;;;;;;;14.87;12.37;;;16.30;99.90;;;;;;3520276;40;20438;-79
2021/05/12 07:12:03;;;;;;;16.23;12.10;;;16.00;99.90;;;;;;3519020;40;20414;-78
2021/05/12 07:14:30;;;;;;;14.23;10.63;;;15.00;99.90;;;;;;3536319;40;20243;-79
2021/05/12 07:16:55;;;;;;;15.83;12.40;;;14.80;99.90;;;;;;3549079;40;20443;-79
2021/05/12 07:19:21;;;;;;;19.67;11.90;;;15.10;99.90;;;;;;3562202;40;20454;-79
2021/05/12 07:22:00;;;;;;;15.23;11.90;;;16.20;99.90;;;;;;3557256;40;20226;-79
2021/05/12 07:24:28;;;;;;;13.43;11.57;;;16.10;99.90;;;;;;3565125;40;20230;-78
2021/05/12 07:26:54;;;;;;;14.80;11.77;;;16.70;99.90;;;;;;3568741;40;20471;-79
2021/05/12 07:29:21;;;;;;;18.97;12.23;;;15.90;99.90;;;;;;3557645;40;20425;-79
2021/05/12 07:32:13;;;;;;;18.03;12.53;;;15.20;99.90;;;;;;3560418;40;20412;-80
2021/05/12 07:34:39;;;;;;;13.07;11.30;;;16.80;99.90;;;;;;3550738;40;21280;-79
2021/05/12 07:37:06;;;;;;;16.73;12.90;;;17.80;99.90;;;;;;3531027;40;20431;-80
2021/05/12 07:39:58;;;;;;;17.33;13.93;;;17.90;99.90;;;;;;3549811;40;20423;-80
2021/05/12 07:42:25;;;;;;;15.77;13.87;;;19.10;99.90;;;;;;3547752;40;21285;-80
2021/05/12 07:44:51;;;;;;;18.00;13.83;;;19.10;99.90;;;;;;3546120;40;20436;-80
2021/05/12 07:47:17;;;;;;;16.53;12.03;;;20.10;99.90;;;;;;3564310;40;20849;-79
2021/05/12 07:49:44;;;;;;;18.13;13.73;;;19.10;99.90;;;;;;3561495;40;20474;-79
2021/05/12 07:52:15;;;;;;;17.90;14.13;;;19.10;99.90;;;;;;3564182;40;20436;-79
2021/05/12 07:54:41;;;;;;;17.37;13.50;;;19.10;99.90;;;;;;3566060;40;20410;-80
2021/05/12 07:57:08;;;;;;;18.80;16.80;;;16.30;99.90;;;;;;3571339;40;20432;-79
2021/05/12 08:00:01;;;;;;;19.07;17.20;;;18.20;99.90;;;;;;3567317;40;20445;-80
2021/05/12 08:02:30;;;;;;;17.40;15.67;;;19.70;99.90;;;;;;3532176;40;20425;-80
2021/05/12 08:04:57;;;;;;;17.17;15.30;;;19.20;99.90;;;;;;3537750;40;20416;-80
2021/05/12 08:07:23;;;;;;;19.43;17.50;;;18.80;99.90;;;;;;3521587;40;20537;-80
2021/05/12 08:09:56;;;;;;;18.73;17.03;;;18.70;99.90;;;;;;3529705;40;21008;-80
2021/05/12 08:12:22;;;;;;;19.20;17.23;;;17.80;99.90;;;;;;3538174;40;20452;-80
2021/05/12 08:14:48;;;;;;;29.90;21.20;;;16.90;99.90;;;;;;3532071;40;20433;-79
2021/05/12 08:17:16;;;;;;;24.87;20.03;;;17.40;99.90;;;;;;3525275;40;20241;-80
2021/05/12 08:19:41;;;;;;;24.70;19.50;;;19.50;99.90;;;;;;3553869;40;20235;-79
2021/05/12 08:22:09;;;;;;;16.57;15.00;;;20.80;99.90;;;;;;3571902;40;21073;-80
2021/05/12 08:24:35;;;;;;;18.07;15.87;;;21.00;99.90;;;;;;3553746;40;20258;-80
2021/05/12 08:27:02;;;;;;;16.10;14.50;;;19.20;99.90;;;;;;3566781;40;20469;-80
2021/05/12 08:29:32;;;;;;;17.60;15.87;;;19.70;99.90;;;;;;3572437;40;20398;-80
2021/05/12 08:31:59;;;;;;;18.67;14.90;;;18.50;99.90;;;;;;3570879;40;20398;-80
2021/05/12 08:34:27;;;;;;;13.87;12.57;;;18.70;99.90;;;;;;3548473;40;21094;-80
2021/05/12 08:36:54;;;;;;;14.47;13.07;;;17.90;99.90;;;;;;3555876;40;20418;-80
2021/05/12 08:39:20;;;;;;;17.17;12.47;;;18.70;99.90;;;;;;3583804;39;21303;-79
2021/05/12 08:41:51;;;;;;;15.43;12.87;;;19.90;99.90;;;;;;3607224;39;20429;-80
2021/05/12 08:44:18;;;;;;;14.97;13.33;;;19.80;99.90;;;;;;3597853;39;20425;-80
2021/05/12 08:46:44;;;;;;;13.70;12.10;;;19.60;99.90;;;;;;3590698;39;20414;-80
2021/05/12 08:49:12;;;;;;;19.77;13.90;;;19.10;99.90;;;;;;3605041;39;20435;-79
2021/05/12 08:52:02;;;;;;;14.00;12.57;;;17.10;99.90;;;;;;3603406;39;20389;-80
2021/05/12 08:54:30;;;;;;;13.70;12.27;;;16.40;99.90;;;;;;3571631;40;20405;-79
2021/05/12 08:57:23;;;;;;;16.03;14.00;;;16.20;99.90;;;;;;3558563;40;20976;-79
2021/05/12 08:59:51;;;;;;;16.40;14.80;;;15.90;99.90;;;;;;3557029;40;20423;-79
2021/05/12 09:02:18;;;;;;;16.80;14.97;;;17.50;99.90;;;;;;3557177;40;20427;-80
2021/05/12 09:04:47;;;;;;;16.90;15.23;;;18.80;99.90;;;;;;3549903;40;20427;-80
2021/05/12 09:07:40;;;;;;;16.03;13.30;;;17.20;99.90;;;;;;3559708;40;21460;-80
2021/05/12 09:10:07;;;;;;;16.67;15.00;;;16.10;99.90;;;;;;3521765;40;21156;-80
2021/05/12 09:12:49;;;;;;;19.17;15.80;;;15.90;99.90;;;;;;3522265;40;20442;-80
2021/05/12 09:15:18;;;;;;;16.87;15.33;;;16.00;99.90;;;;;;3520312;40;21258;-79
2021/05/12 09:17:47;;;;;;;18.30;16.20;;;16.40;99.90;;;;;;3505240;40;20418;-79
2021/05/12 09:20:23;;;;;;;17.37;15.90;;;18.30;99.90;;;;;;3522111;40;20550;-80
2021/05/12 09:23:00;;;;;;;15.53;14.13;;;20.10;99.90;;;;;;3522756;40;20422;-80
2021/05/12 09:25:31;;;;;;;16.17;14.53;;;21.10;99.90;;;;;;3522396;40;20407;-79
2021/05/12 09:28:15;;;;;;;17.03;15.53;;;18.90;99.90;;;;;;3521954;40;20425;-77
2021/05/12 09:30:45;;;;;;;15.90;14.53;;;21.40;99.90;;;;;;3526097;40;21277;-78
2021/05/12 09:33:27;;;;;;;15.13;11.40;;;20.70;99.90;;;;;;3530032;40;21197;-78
2021/05/12 09:35:55;;;;;;;15.50;14.07;;;18.30;99.90;;;;;;3536518;40;20439;-79
2021/05/12 09:38:27;;;;;;;15.90;13.60;;;18.40;99.90;;;;;;3568467;40;20454;-78
2021/05/12 09:41:11;;;;;;;15.43;14.13;;;17.20;99.90;;;;;;3569188;40;20429;-79
2021/05/12 09:43:50;;;;;;;15.63;14.23;;;17.00;99.90;;;;;;3570200;40;20487;-79
2021/05/12 09:46:24;;;;;;;17.90;13.30;;;16.90;99.90;;;;;;3574312;39;20401;-78
2021/05/12 09:48:59;;;;;;;15.27;13.80;;;19.00;99.90;;;;;;3600755;39;20503;-78
2021/05/12 09:51:34;;;;;;;16.20;14.60;;;17.70;99.90;;;;;;3598285;39;20426;-78
2021/05/12 09:54:11;;;;;;;16.10;13.20;;;17.20;99.90;;;;;;3600191;39;20396;-78
2021/05/12 09:56:40;;;;;;;18.10;15.67;;;17.10;99.90;;;;;;3615305;39;20430;-78
2021/05/12 09:59:08;;;;;;;17.60;15.73;;;16.90;99.90;;;;;;3607045;39;20398;-79
2021/05/12 10:01:50;;;;;;;17.90;16.13;;;17.00;99.90;;;;;;3607417;39;20430;-78
2021/05/12 10:04:20;;;;;;;18.37;15.27;;;16.90;99.90;;;;;;3597649;39;20511;-78
2021/05/12 10:06:45;;;;;;;18.50;15.10;;;17.10;99.90;;;;;;3600388;39;21131;-78
2021/05/12 10:09:23;;;;;;;16.20;14.50;;;17.10;99.90;;;;;;3599646;39;20418;-78
2021/05/12 10:12:10;;;;;;;15.30;13.90;;;17.20;99.90;;;;;;3610442;39;20239;-79
2021/05/12 10:14:39;;;;;;;16.83;15.13;;;17.90;99.90;;;;;;3616425;39;20482;-78
2021/05/12 10:17:08;;;;;;;18.10;16.40;;;17.80;99.90;;;;;;3609343;39;20390;-78
2021/05/12 10:19:35;;;;;;;18.43;16.53;;;17.50;99.90;;;;;;3612586;39;20437;-79
2021/05/12 10:22:02;;;;;;;17.90;16.33;;;17.90;99.90;;;;;;3608327;39;20419;-78
2021/05/12 10:24:31;;;;;;;20.20;15.43;;;18.10;99.90;;;;;;3598093;39;20405;-78
2021/05/12 10:27:00;;;;;;;18.00;16.23;;;17.70;99.90;;;;;;3616542;39;20438;-79
2021/05/12 10:29:27;;;;;;;16.80;15.20;;;18.90;99.90;;;;;;3605934;39;20421;-79
2021/05/12 10:31:53;;;;;;;16.33;14.87;;;22.20;99.90;;;;;;3605027;39;20438;-78
2021/05/12 10:34:36;;;;;;;16.23;14.57;;;21.90;99.90;;;;;;3601855;39;20443;-79
2021/05/12 10:37:26;;;;;;;15.90;14.30;;;22.80;99.90;;;;;;3606203;39;20421;-79
2021/05/12 10:39:59;;;;;;;14.70;13.40;;;23.50;99.90;;;;;;3598184;39;20422;-79
2021/05/12 10:43:09;;;;;;;18.43;11.93;;;22.10;99.90;;;;;;3606501;39;20531;-79
2021/05/12 10:48:37;;;;;;;13.97;12.53;;;18.70;99.90;;;;;;3615701;39;20414;-78
2021/05/12 10:51:24;;;;;;;15.47;14.03;;;18.50;99.90;;;;;;3604862;39;20402;-79
2021/05/12 10:53:52;;;;;;;16.30;14.73;;;18.40;99.90;;;;;;3616391;39;20405;-78
2021/05/12 10:56:20;;;;;;;17.40;15.00;;;18.20;99.90;;;;;;3605511;39;20839;-78
2021/05/12 10:58:56;;;;;;;12.73;11.43;;;18.10;99.90;;;;;;3606945;39;20402;-78
2021/05/12 11:01:23;;;;;;;16.97;15.23;;;18.10;99.90;;;;;;3608974;39;20413;-79
2021/05/12 11:06:18;;;;;;;20.13;18.13;;;19.70;99.90;;;;;;3614997;39;20442;-78
2021/05/12 11:09:11;;;;;;;18.13;16.40;;;21.80;99.90;;;;;;3604004;39;20411;-78
2021/05/12 11:11:49;;;;;;;16.60;14.50;;;19.40;99.90;;;;;;3605472;39;20446;-78
2021/05/12 11:14:38;;;;;;;17.20;15.53;;;19.10;99.90;;;;;;3615395;39;20422;-78
2021/05/12 11:17:43;;;;;;;16.20;14.70;;;18.50;99.90;;;;;;3611796;39;20384;-77
2021/05/12 11:20:15;;;;;;;17.77;15.97;;;18.20;99.90;;;;;;3588297;39;20428;-79
2021/05/12 11:33:27;;;;;;;12.83;11.13;;;18.20;99.90;;;;;;3577540;39;20908;-78
2021/05/12 11:36:01;;;;;;;14.83;12.00;;;18.30;99.90;;;;;;3585169;39;20473;-78
2021/05/12 11:38:28;;;;;;;14.63;13.33;;;18.20;99.90;;;;;;3574626;39;20424;-78
2021/05/12 11:41:10;;;;;;;12.97;11.77;;;19.30;99.90;;;;;;3575414;39;20419;-78
2021/05/12 11:43:46;;;;;;;11.50;10.13;;;18.30;99.90;;;;;;3577048;39;20420;-79
2021/05/12 11:46:23;;;;;;;9.37;8.57;;;17.80;99.90;;;;;;3573485;39;20427;-78
2021/05/12 11:48:53;;;;;;;12.50;11.37;;;17.40;99.90;;;;;;3593750;39;20414;-79
2021/05/12 11:51:33;;;;;;;12.57;11.57;;;17.20;99.90;;;;;;3592102;39;20423;-79
2021/05/12 11:54:01;;;;;;;13.90;12.13;;;17.50;99.90;;;;;;3600915;39;20407;-79
2021/05/12 11:56:29;;;;;;;13.97;12.30;;;17.30;99.90;;;;;;3587930;39;20419;-78
2021/05/12 11:59:01;;;;;;;12.20;9.27;;;17.40;99.90;;;;;;3592597;39;20443;-79
2021/05/12 12:01:29;;;;;;;12.03;9.70;;;17.50;99.90;;;;;;3602291;39;20408;-78
2021/05/12 12:04:14;;;;;;;9.33;8.43;;;18.00;99.90;;;;;;3604645;39;20419;-78
2021/05/12 12:06:42;;;;;;;11.20;10.23;;;18.00;99.90;;;;;;3596980;39;20412;-78
2021/05/12 12:09:09;;;;;;;10.83;9.80;;;18.20;99.90;;;;;;3599746;39;20419;-79
2021/05/12 12:11:35;;;;;;;13.63;12.27;;;18.10;99.90;;;;;;3597194;39;20420;-79
2021/05/12 12:14:02;;;;;;;13.57;12.27;;;17.90;99.90;;;;;;3604570;39;20595;-79
2021/05/12 12:16:29;;;;;;;14.07;12.60;;;17.90;99.90;;;;;;3596914;39;21178;-78
2021/05/12 12:18:55;;;;;;;13.80;12.30;;;18.30;99.90;;;;;;3595304;39;20439;-78
2021/05/12 12:21:31;;;;;;;16.20;12.93;;;18.50;99.90;;;;;;3585342;39;20411;-79
2021/05/12 12:24:12;;;;;;;13.73;12.43;;;20.30;99.90;;;;;;3587617;39;20450;-79
2021/05/12 12:26:41;;;;;;;15.83;11.37;;;23.50;99.90;;;;;;3595720;39;20410;-79
2021/05/12 12:29:09;;;;;;;10.63;9.53;;;20.60;99.40;;;;;;3597889;39;20426;-78
2021/05/12 12:31:47;;;;;;;11.10;9.97;;;19.60;99.90;;;;;;3591906;39;20417;-79
2021/05/12 12:34:20;;;;;;;11.67;10.40;;;19.30;99.90;;;;;;3609354;39;21102;-78
2021/05/12 12:36:54;;;;;;;10.40;9.50;;;18.70;99.90;;;;;;3604483;39;20466;-78
2021/05/12 12:39:21;;;;;;;9.77;8.97;;;18.50;99.90;;;;;;3597095;39;20401;-79
2021/05/12 12:41:51;;;;;;;8.53;7.87;;;17.90;99.90;;;;;;3597759;39;20411;-78
2021/05/12 12:44:19;;;;;;;10.43;9.40;;;17.70;99.90;;;;;;3613619;39;20865;-79
2021/05/12 12:46:55;;;;;;;10.70;9.80;;;17.50;99.90;;;;;;3598070;39;20434;-79
2021/05/12 12:49:33;;;;;;;13.83;12.40;;;17.60;99.90;;;;;;3606261;39;20441;-79
2021/05/12 12:52:12;;;;;;;12.10;10.80;;;17.70;99.90;;;;;;3614833;39;20413;-79
2021/05/12 12:55:06;;;;;;;13.27;12.13;;;17.70;99.90;;;;;;3597129;39;20419;-78
2021/05/12 12:58:04;;;;;;;16.37;12.60;;;18.10;99.90;;;;;;3582566;40;20425;-79
2021/05/12 13:00:56;;;;;;;13.80;12.30;;;18.10;99.90;;;;;;3559217;40;20417;-79
2021/05/12 13:03:48;;;;;;;15.63;14.13;;;20.10;99.90;;;;;;3534656;40;20430;-80